Time;durP1;ratioP1;P1;durP2;ratioP2;P2;SDS_P1;SDS_P2;PMS_P1;PMS_P2;Temp;Humidity;BMP_temperature;BMP_pressure;BME280_temperature;BME280_humidity;BME280_pressure;Samples;Min_cycle;Max_cycle;Signal;HPM_P1;HPM_P2
2022/07/10 00:01:14;;;;;;;7.50;3.20;;;;;17.60;97245.40;;;;110598;1254;41183;-67
2022/07/10 00:03:44;;;;;;;7.10;3.00;;;;;17.50;97242.20;;;;110652;1253;41378;-69
2022/07/10 00:06:13;;;;;;;8.70;4.10;;;;;17.40;97241.80;;;;110655;1253;42369;-67
2022/07/10 00:08:43;;;;;;;9.80;3.60;;;;;17.40;97243.40;;;;110558;1253;41694;-68
2022/07/10 00:11:14;;;;;;;;;;;;;17.30;97243.40;;;;110543;1253;41262;-69
2022/07/10 00:13:44;;;;;;;8.20;3.70;;;;;17.20;97243.60;;;;110680;1253;41212;-68
2022/07/10 00:16:13;;;;;;;7.20;3.20;;;;;17.12;97240.20;;;;110660;1254;41321;-69
2022/07/10 00:18:42;;;;;;;8.10;3.30;;;;;17.10;97242.00;;;;110631;1253;41708;-67
2022/07/10 00:21:11;;;;;;;7.60;3.10;;;;;17.10;97243.40;;;;110474;1253;42099;-68
2022/07/10 00:23:41;;;;;;;7.70;3.50;;;;;17.10;97245.00;;;;110517;1253;41152;-68
2022/07/10 00:26:11;;;;;;;7.20;3.20;;;;;17.00;97244.40;;;;110583;1253;41603;-67
2022/07/10 00:28:40;;;;;;;8.40;3.80;;;;;17.02;97238.80;;;;110682;1253;41602;-68
2022/07/10 00:31:10;;;;;;;8.10;4.00;;;;;17.10;97238.00;;;;110531;1253;41903;-67
2022/07/10 00:33:40;;;;;;;7.90;3.80;;;;;17.10;97235.20;;;;110534;1254;41129;-68
2022/07/10 00:36:10;;;;;;;8.00;3.60;;;;;17.10;97233.20;;;;110562;1254;41876;-69
2022/07/10 00:38:41;;;;;;;9.30;3.80;;;;;17.10;97228.80;;;;110697;1254;41621;-68
2022/07/10 00:41:10;;;;;;;8.70;3.60;;;;;17.10;97228.20;;;;110670;1253;41160;-68
2022/07/10 00:43:57;;;;;;;7.10;3.20;;;;;17.10;97227.20;;;;110483;1254;41276;-69
2022/07/10 00:46:28;;;;;;;8.20;3.80;;;;;17.00;97223.60;;;;110433;1254;41246;-67
2022/07/10 00:48:58;;;;;;;8.90;3.90;;;;;16.90;97224.20;;;;110401;1254;42242;-69
2022/07/10 00:51:29;;;;;;;8.30;3.70;;;;;16.80;97222.80;;;;110537;1253;41151;-69
2022/07/10 00:53:59;;;;;;;15.30;4.20;;;;;16.64;97218.80;;;;110499;1256;41146;-69
2022/07/10 00:56:29;;;;;;;11.70;4.20;;;;;16.50;97216.80;;;;110727;1253;40736;-69
2022/07/10 00:58:59;;;;;;;8.90;4.10;;;;;16.40;97220.60;;;;110620;1254;41840;-68
2022/07/10 01:01:29;;;;;;;8.30;4.10;;;;;16.30;97222.80;;;;110587;1254;41152;-69
2022/07/10 01:03:59;;;;;;;8.70;4.00;;;;;16.16;97224.00;;;;110689;1253;41846;-69
2022/07/10 01:06:30;;;;;;;6.90;3.10;;;;;16.12;97220.00;;;;110657;1253;41149;-68
2022/07/10 01:09:01;;;;;;;8.10;3.30;;;;;16.12;97218.60;;;;110778;1253;41258;-67
2022/07/10 01:11:34;;;;;;;7.50;3.00;;;;;16.18;97218.00;;;;110663;1254;41900;-69
2022/07/10 01:14:04;;;;;;;7.50;3.10;;;;;16.20;97216.40;;;;110626;1255;41155;-69
2022/07/10 01:16:34;;;;;;;8.30;3.50;;;;;16.20;97212.80;;;;110635;1254;42566;-67
2022/07/10 01:19:06;;;;;;;9.90;4.20;;;;;16.20;97211.00;;;;110461;1253;41263;-68
2022/07/10 01:21:37;;;;;;;8.70;3.80;;;;;16.20;97206.40;;;;110540;1254;41169;-67
2022/07/10 01:24:09;;;;;;;8.60;3.30;;;;;16.18;97213.40;;;;110512;1253;41267;-67
2022/07/10 01:26:42;;;;;;;8.70;4.00;;;;;16.04;97208.60;;;;110379;1255;41162;-68
2022/07/10 01:29:13;;;;;;;8.00;3.90;;;;;16.00;97206.00;;;;110510;1253;41186;-69
2022/07/10 01:31:45;;;;;;;7.40;3.30;;;;;15.90;97205.00;;;;110594;1254;41157;-68
2022/07/10 01:34:18;;;;;;;7.50;2.90;;;;;15.90;97200.40;;;;110465;1253;42570;-66
2022/07/10 01:36:49;;;;;;;6.60;2.90;;;;;15.80;97191.20;;;;110464;1254;41636;-68
2022/07/10 01:39:19;;;;;;;5.70;2.80;;;;;15.80;97190.60;;;;110381;1255;41161;-68
2022/07/10 01:41:49;;;;;;;6.80;3.20;;;;;15.80;97183.40;;;;110582;1253;41168;-68
2022/07/10 01:44:20;;;;;;;6.70;3.00;;;;;15.72;97178.20;;;;110581;1253;41618;-68
2022/07/10 01:46:50;;;;;;;;;;;;;15.70;97182.00;;;;110541;1253;41613;-68
2022/07/10 01:49:21;;;;;;;5.70;2.70;;;;;15.60;97177.20;;;;110574;1254;41133;-68
2022/07/10 01:51:52;;;;;;;5.80;2.60;;;;;15.60;97175.20;;;;110459;1254;41160;-69
2022/07/10 01:54:24;;;;;;;6.50;3.00;;;;;15.50;97179.60;;;;110518;1253;41915;-66
2022/07/10 01:56:56;;;;;;;7.10;3.00;;;;;15.50;97177.00;;;;110536;1253;41956;-68
2022/07/10 01:59:27;;;;;;;9.30;4.10;;;;;15.44;97173.20;;;;110484;1253;41405;-69
2022/07/10 02:01:58;;;;;;;7.50;3.50;;;;;15.50;97175.80;;;;110693;1253;41334;-69
2022/07/10 02:04:40;;;;;;;7.20;3.50;;;;;15.40;97170.20;;;;110663;1252;41149;-68
2022/07/10 02:07:13;;;;;;;7.00;3.20;;;;;15.40;97170.40;;;;110560;1253;41595;-68
2022/07/10 02:09:45;;;;;;;6.50;2.60;;;;;15.30;97174.00;;;;110570;1253;41939;-69
2022/07/10 02:12:16;;;;;;;5.60;2.40;;;;;15.20;97175.20;;;;110539;1253;41330;-68
2022/07/10 02:14:46;;;;;;;6.00;2.50;;;;;15.20;97170.80;;;;110504;1253;41650;-68
2022/07/10 02:17:16;;;;;;;;;;;;;15.10;97173.60;;;;110479;1252;41439;-69
2022/07/10 02:19:47;;;;;;;8.10;2.70;;;;;15.00;97172.60;;;;110577;1252;41962;-68
2022/07/10 02:22:17;;;;;;;9.30;2.90;;;;;15.00;97168.60;;;;110473;1253;41987;-68
2022/07/10 02:24:47;;;;;;;;;;;;;14.98;97166.60;;;;110446;1254;41720;-68
2022/07/10 02:27:18;;;;;;;6.30;2.90;;;;;14.90;97169.80;;;;110563;1253;41178;-67
2022/07/10 02:29:49;;;;;;;6.80;2.80;;;;;14.88;97172.80;;;;110513;1253;41169;-68
2022/07/10 02:32:21;;;;;;;5.50;2.50;;;;;14.80;97172.40;;;;110487;1255;41900;-69
2022/07/10 02:34:53;;;;;;;8.60;3.50;;;;;14.80;97171.20;;;;110528;1253;41454;-69
2022/07/10 02:37:23;;;;;;;;;;;;;14.68;97170.80;;;;110612;1253;41160;-68
2022/07/10 02:39:54;;;;;;;10.10;4.60;;;;;14.60;97170.00;;;;110532;1254;41144;-69
2022/07/10 02:42:24;;;;;;;8.00;3.80;;;;;14.48;97175.80;;;;110557;1253;41267;-69
2022/07/10 02:44:54;;;;;;;8.30;4.00;;;;;14.40;97172.60;;;;110508;1253;41710;-68
2022/07/10 02:47:24;;;;;;;8.50;3.70;;;;;14.38;97173.20;;;;110447;1253;41609;-68
2022/07/10 02:49:54;;;;;;;7.10;2.90;;;;;14.30;97177.60;;;;110445;1254;41189;-69
2022/07/10 02:52:25;;;;;;;6.40;2.80;;;;;14.30;97173.80;;;;110429;1255;41140;-69
2022/07/10 02:54:56;;;;;;;6.20;2.70;;;;;14.30;97174.00;;;;110539;1253;41887;-67
2022/07/10 02:57:27;;;;;;;6.00;2.50;;;;;14.30;97179.40;;;;110377;1254;41275;-69
2022/07/10 02:59:58;;;;;;;5.80;2.70;;;;;14.30;97177.80;;;;110593;1254;41625;-69
2022/07/10 03:02:29;;;;;;;5.70;2.30;;;;;14.30;97183.20;;;;110641;1254;41647;-69
2022/07/10 03:04:59;;;;;;;6.30;2.70;;;;;14.28;97183.40;;;;110638;1254;41143;-69
2022/07/10 03:07:30;;;;;;;8.10;3.60;;;;;14.22;97184.20;;;;110418;1255;42847;-68
2022/07/10 03:10:00;;;;;;;8.10;3.90;;;;;14.14;97185.40;;;;110525;1253;41142;-68
2022/07/10 03:12:31;;;;;;;10.00;3.60;;;;;14.00;97183.80;;;;110495;1253;41265;-67
2022/07/10 03:15:02;;;;;;;7.00;2.90;;;;;14.00;97183.80;;;;110570;1253;41196;-68
2022/07/10 03:17:32;;;;;;;8.40;4.00;;;;;14.00;97182.20;;;;110510;1253;41854;-68
2022/07/10 03:20:03;;;;;;;9.10;3.90;;;;;13.90;97177.80;;;;110511;1254;41531;-68
2022/07/10 03:22:33;;;;;;;14.60;4.20;;;;;13.90;97176.40;;;;110302;1253;41158;-69
2022/07/10 03:25:06;;;;;;;9.40;3.90;;;;;13.86;97177.60;;;;110713;1254;41988;-70
2022/07/10 03:27:38;;;;;;;8.10;3.80;;;;;13.80;97183.20;;;;110613;1253;41196;-70
2022/07/10 03:30:09;;;;;;;9.80;3.90;;;;;13.82;97189.80;;;;110477;1254;40804;-70
2022/07/10 03:32:40;;;;;;;13.60;4.00;;;;;13.88;97190.40;;;;110571;1254;41376;-68
2022/07/10 03:35:10;;;;;;;7.60;3.90;;;;;13.78;97191.00;;;;110640;1254;42390;-68
2022/07/10 03:37:40;;;;;;;10.70;4.50;;;;;13.80;97193.60;;;;110540;1252;41262;-70
2022/07/10 03:40:16;;;;;;;8.70;4.20;;;;;13.80;97191.00;;;;110504;1254;41140;-67
2022/07/10 03:42:47;;;;;;;8.80;4.40;;;;;13.76;97187.00;;;;110454;1253;41146;-67
2022/07/10 03:45:17;;;;;;;8.60;4.10;;;;;13.80;97184.60;;;;110534;1253;41145;-68
2022/07/10 03:47:48;;;;;;;9.80;3.90;;;;;13.88;97187.00;;;;110455;1254;41178;-69
2022/07/10 03:50:18;;;;;;;7.80;3.20;;;;;13.90;97185.40;;;;110470;1253;41613;-69
2022/07/10 03:52:50;;;;;;;8.30;3.80;;;;;14.00;97188.00;;;;110504;1253;41361;-67
2022/07/10 03:55:20;;;;;;;8.30;3.80;;;;;14.00;97188.40;;;;110457;1256;41153;-69
2022/07/10 04:00:49;;;;;;;8.60;3.70;;;;;14.18;97190.60;;;;110693;1253;41454;-68
2022/07/10 04:03:18;;;;;;;8.00;3.30;;;;;14.22;97189.20;;;;110728;1253;41150;-68
2022/07/10 04:05:47;;;;;;;8.70;3.40;;;;;14.32;97191.00;;;;110692;1253;41718;-68
2022/07/10 04:08:17;;;;;;;7.90;3.50;;;;;14.40;97190.80;;;;110669;1254;41532;-68
2022/07/10 04:10:47;;;;;;;7.20;3.10;;;;;14.50;97187.40;;;;110713;1253;42222;-67
2022/07/10 04:13:16;;;;;;;7.90;3.40;;;;;14.60;97185.60;;;;110206;1254;42330;-68
2022/07/10 04:15:46;;;;;;;7.90;3.20;;;;;14.76;97183.60;;;;110416;1253;41133;-68
2022/07/10 04:18:16;;;;;;;6.90;3.00;;;;;14.90;97183.40;;;;110450;1253;41264;-68
2022/07/10 04:20:46;;;;;;;9.20;3.60;;;;;15.00;97182.60;;;;110632;1253;41158;-68
2022/07/10 04:23:16;;;;;;;8.20;3.60;;;;;15.18;97183.60;;;;110411;1255;41675;-69
2022/07/10 04:25:46;;;;;;;7.50;3.10;;;;;15.40;97178.20;;;;110705;1251;41800;-69
2022/07/10 04:28:17;;;;;;;9.00;4.10;;;;;15.80;97175.20;;;;110463;1253;41268;-68
2022/07/10 04:30:46;;;;;;;9.60;4.00;;;;;16.36;97165.40;;;;110553;1251;41981;-70
2022/07/10 04:33:16;;;;;;;7.90;3.90;;;;;16.88;97165.40;;;;110791;1251;41717;-70
2022/07/10 04:35:46;;;;;;;7.90;3.50;;;;;17.34;97158.60;;;;110495;1251;41457;-69
2022/07/10 04:38:15;;;;;;;7.00;3.10;;;;;18.00;97167.00;;;;110787;1252;41437;-69
2022/07/10 04:40:44;;;;;;;7.00;3.00;;;;;18.64;97168.00;;;;110754;1251;41142;-69
2022/07/10 04:43:14;;;;;;;11.20;3.70;;;;;19.36;97162.20;;;;110748;1252;41962;-69
2022/07/10 04:45:43;;;;;;;7.50;3.50;;;;;19.90;97151.60;;;;110635;1253;41273;-66
2022/07/10 04:48:13;;;;;;;7.40;3.40;;;;;19.94;97150.20;;;;110732;1253;41837;-69
2022/07/10 04:50:42;;;;;;;6.50;3.10;;;;;20.20;97154.40;;;;110819;1251;42100;-70
2022/07/10 04:53:12;;;;;;;6.80;2.90;;;;;20.56;97151.00;;;;110607;1253;41619;-71
2022/07/10 04:55:41;;;;;;;4.60;2.20;;;;;20.52;97151.20;;;;110459;1253;41242;-69
2022/07/10 04:58:11;;;;;;;5.60;2.80;;;;;21.10;97147.40;;;;110740;1253;41139;-68
2022/07/10 05:00:40;;;;;;;9.20;3.10;;;;;21.40;97136.00;;;;110764;1251;41246;-68
2022/07/10 05:03:10;;;;;;;7.70;3.00;;;;;21.44;97131.40;;;;110777;1251;41144;-66
2022/07/10 05:05:40;;;;;;;6.20;2.50;;;;;21.30;97136.00;;;;110503;1253;41155;-67
2022/07/10 05:08:10;;;;;;;8.10;2.70;;;;;21.02;97152.60;;;;110718;1254;41173;-67
2022/07/10 05:10:40;;;;;;;6.40;2.60;;;;;20.78;97153.00;;;;110585;1253;41155;-67
2022/07/10 05:13:11;;;;;;;5.70;2.40;;;;;20.42;97142.60;;;;110510;1253;41305;-69
2022/07/10 05:15:41;;;;;;;6.80;2.80;;;;;20.30;97146.60;;;;110540;1253;41168;-68
2022/07/10 05:18:10;;;;;;;5.80;2.50;;;;;20.04;97135.00;;;;110668;1253;42186;-66
2022/07/10 05:20:43;;;;;;;8.20;2.70;;;;;20.50;97114.60;;;;110591;1252;41146;-68
2022/07/10 05:23:13;;;;;;;8.70;2.70;;;;;20.84;97119.20;;;;110424;1254;41530;-68
2022/07/10 05:25:43;;;;;;;5.10;2.30;;;;;20.90;97125.00;;;;110497;1253;41261;-68
2022/07/10 05:28:14;;;;;;;4.20;2.00;;;;;20.70;97133.00;;;;110526;1251;41249;-68
2022/07/10 05:30:44;;;;;;;6.70;2.60;;;;;20.90;97135.60;;;;110367;1253;41166;-68
2022/07/10 05:33:15;;;;;;;7.10;2.60;;;;;20.82;97137.00;;;;110461;1254;41251;-68
2022/07/10 05:35:46;;;;;;;6.00;2.40;;;;;20.28;97142.20;;;;110426;1253;41327;-69
2022/07/10 05:38:17;;;;;;;8.20;2.90;;;;;20.00;97146.20;;;;110514;1254;40928;-67
2022/07/10 05:40:46;;;;;;;5.00;2.30;;;;;19.80;97142.80;;;;110348;1254;42000;-66
2022/07/10 05:43:15;;;;;;;5.00;2.20;;;;;19.80;97146.60;;;;110555;1253;41281;-67
2022/07/10 05:45:45;;;;;;;6.60;2.60;;;;;19.90;97143.60;;;;110473;1253;41625;-67
2022/07/10 05:48:19;;;;;;;6.50;2.60;;;;;19.90;97142.60;;;;110544;1252;41302;-66
2022/07/10 05:50:48;;;;;;;;;;;;;19.90;97141.00;;;;110540;1253;41153;-66
2022/07/10 05:53:19;;;;;;;4.90;2.40;;;;;19.80;97138.20;;;;110597;1253;41255;-67
2022/07/10 05:55:48;;;;;;;7.60;3.00;;;;;19.82;97138.40;;;;110568;1251;41904;-67
2022/07/10 05:58:18;;;;;;;5.80;2.50;;;;;19.80;97131.00;;;;110545;1253;41545;-66
2022/07/10 06:00:49;;;;;;;6.70;3.00;;;;;19.84;97132.80;;;;110526;1253;41953;-67
2022/07/10 06:03:21;;;;;;;5.70;2.60;;;;;20.40;97127.60;;;;110584;1253;41615;-67
2022/07/10 06:05:50;;;;;;;6.10;2.40;;;;;21.24;97121.20;;;;110266;1254;41878;-66
2022/07/10 06:08:19;;;;;;;11.50;2.60;;;;;22.04;97115.80;;;;110631;1253;40748;-66
2022/07/10 06:10:49;;;;;;;8.90;2.50;;;;;22.96;97108.60;;;;110473;1253;42476;-67
2022/07/10 06:13:18;;;;;;;5.70;2.50;;;;;23.82;97105.20;;;;110590;1255;41183;-67
2022/07/10 06:15:48;;;;;;;3.80;1.90;;;;;24.68;97100.80;;;;110522;1253;41296;-66
2022/07/10 06:18:17;;;;;;;5.80;2.20;;;;;25.28;97101.60;;;;110573;1253;41756;-66
2022/07/10 06:20:47;;;;;;;4.10;2.00;;;;;25.82;97104.00;;;;110680;1251;41629;-67
2022/07/10 06:23:17;;;;;;;3.90;1.80;;;;;26.00;97098.60;;;;110497;1253;41583;-67
2022/07/10 06:25:48;;;;;;;5.00;2.00;;;;;26.62;97097.40;;;;110589;1251;41374;-68
2022/07/10 06:28:18;;;;;;;4.50;2.10;;;;;27.46;97095.40;;;;110470;1253;41261;-65
2022/07/10 06:30:48;;;;;;;;;;;;;27.90;97085.20;;;;110433;1253;41261;-67
2022/07/10 06:33:17;;;;;;;5.70;2.00;;;;;28.30;97088.80;;;;110549;1253;41859;-67
2022/07/10 06:35:47;;;;;;;3.60;1.70;;;;;28.36;97087.60;;;;110612;1253;42393;-67
2022/07/10 06:38:16;;;;;;;4.20;2.00;;;;;28.16;97087.40;;;;110505;1253;41178;-65
2022/07/10 06:40:47;;;;;;;4.30;1.90;;;;;27.62;97091.80;;;;110508;1253;41600;-68
2022/07/10 06:43:16;;;;;;;3.80;1.80;;;;;27.04;97094.40;;;;110750;1253;41660;-67
2022/07/10 06:45:45;;;;;;;5.10;2.00;;;;;26.52;97096.00;;;;110438;1253;41341;-66
2022/07/10 06:48:15;;;;;;;3.50;1.70;;;;;26.10;97095.40;;;;110514;1253;41257;-67
2022/07/10 06:50:44;;;;;;;4.10;1.90;;;;;26.18;97101.20;;;;110509;1253;42423;-65
2022/07/10 06:53:15;;;;;;;3.90;1.90;;;;;26.10;97095.60;;;;110330;1256;41315;-66
2022/07/10 06:55:44;;;;;;;3.90;1.80;;;;;26.16;97089.60;;;;110594;1253;41536;-66
2022/07/10 06:58:13;;;;;;;6.00;1.80;;;;;26.40;97091.40;;;;110513;1253;41198;-67
2022/07/10 07:00:43;;;;;;;4.70;2.00;;;;;26.30;97093.60;;;;110522;1252;41482;-67
2022/07/10 07:03:13;;;;;;;4.50;1.90;;;;;26.58;97085.60;;;;110634;1253;41258;-66
2022/07/10 07:05:42;;;;;;;5.00;1.80;;;;;27.44;97085.00;;;;110549;1255;41142;-66
2022/07/10 07:08:13;;;;;;;3.90;2.00;;;;;27.80;97087.00;;;;110492;1252;41644;-65
2022/07/10 07:10:44;;;;;;;3.20;1.60;;;;;28.50;97079.60;;;;110508;1253;41156;-66
2022/07/10 07:13:13;;;;;;;4.60;2.00;;;;;29.20;97074.40;;;;110425;1253;41660;-66
2022/07/10 07:15:50;;;;;;;8.30;2.30;;;;;29.42;97079.60;;;;110356;1254;41256;-66
2022/07/10 07:18:21;;;;;;;5.10;2.10;;;;;28.98;97076.20;;;;110524;1253;41636;-66
2022/07/10 07:23:38;;;;;;;3.90;1.80;;;;;28.30;97081.20;;;;110504;1253;41859;-66
2022/07/10 07:26:07;;;;;;;3.40;1.70;;;;;28.18;97080.60;;;;110462;1253;41263;-66
2022/07/10 07:28:37;;;;;;;5.20;2.10;;;;;27.82;97082.40;;;;110186;1254;442432;-66
2022/07/10 07:31:06;;;;;;;3.60;1.90;;;;;27.50;97087.40;;;;110498;1253;41274;-66
2022/07/10 07:33:42;;;;;;;5.60;1.90;;;;;27.20;97087.20;;;;110540;1253;41500;-65
2022/07/10 07:36:11;;;;;;;6.80;2.00;;;;;27.18;97083.80;;;;110567;1253;41188;-65
2022/07/10 07:38:41;;;;;;;3.70;1.90;;;;;26.90;97083.00;;;;110567;1253;42227;-67
2022/07/10 07:41:10;;;;;;;4.60;2.00;;;;;26.70;97087.60;;;;110562;1253;41604;-65
2022/07/10 07:43:40;;;;;;;4.40;1.80;;;;;26.50;97089.00;;;;110553;1253;41615;-65
2022/07/10 07:46:09;;;;;;;5.40;2.20;;;;;26.30;97091.80;;;;110560;1253;42382;-66
2022/07/10 07:48:39;;;;;;;3.50;1.80;;;;;26.20;97093.40;;;;110447;1253;41146;-65
2022/07/10 07:51:08;;;;;;;5.10;1.90;;;;;26.10;97094.60;;;;110604;1253;42138;-66
2022/07/10 07:53:38;;;;;;;4.10;1.90;;;;;26.00;97094.40;;;;110555;1253;41939;-66
2022/07/10 07:56:07;;;;;;;4.80;2.00;;;;;26.10;97096.80;;;;110538;1253;42387;-66
2022/07/10 07:58:37;;;;;;;4.20;2.00;;;;;25.90;97097.40;;;;110605;1250;41257;-67
2022/07/10 08:01:06;;;;;;;3.90;1.90;;;;;25.90;97101.80;;;;110564;1252;41145;-66
2022/07/10 08:03:36;;;;;;;4.20;1.90;;;;;25.80;97098.60;;;;110556;1253;41152;-65
2022/07/10 08:06:25;;;;;;;4.20;1.90;;;;;25.80;97103.40;;;;110537;1253;41636;-65
2022/07/10 08:08:54;;;;;;;5.60;2.00;;;;;25.80;97111.60;;;;110494;1253;41635;-66
2022/07/10 08:11:23;;;;;;;3.80;1.90;;;;;25.90;97103.80;;;;110481;1254;41391;-66
2022/07/10 08:13:53;;;;;;;6.40;2.30;;;;;25.70;97099.80;;;;110474;1253;41331;-66
2022/07/10 08:16:22;;;;;;;4.70;1.70;;;;;25.70;97093.60;;;;110557;1253;41275;-66
2022/07/10 08:18:51;;;;;;;3.20;1.80;;;;;25.82;97093.60;;;;110540;1253;41156;-65
2022/07/10 08:21:22;;;;;;;3.80;1.80;;;;;26.10;97092.40;;;;110405;1254;41186;-66
2022/07/10 08:23:57;;;;;;;5.10;2.00;;;;;26.40;97086.00;;;;110545;1253;41655;-65
2022/07/10 08:26:39;;;;;;;5.00;2.00;;;;;26.10;97086.80;;;;110484;1253;41811;-66
2022/07/10 08:29:17;;;;;;;4.90;1.70;;;;;26.32;97083.00;;;;110583;1253;42505;-66
2022/07/10 08:31:46;;;;;;;3.70;2.00;;;;;26.48;97082.00;;;;110412;1255;41272;-67
2022/07/10 08:34:15;;;;;;;3.70;1.70;;;;;26.52;97083.40;;;;110527;1253;41145;-66
2022/07/10 08:36:44;;;;;;;3.40;1.80;;;;;26.80;97077.60;;;;110503;1253;41156;-66
2022/07/10 08:39:21;;;;;;;5.10;2.00;;;;;27.16;97074.20;;;;110386;1253;41622;-66
2022/07/10 08:41:51;;;;;;;4.40;1.90;;;;;27.40;97084.00;;;;110480;1253;41595;-65
2022/07/10 08:44:23;;;;;;;4.80;2.00;;;;;27.40;97078.80;;;;110301;1255;41149;-66
2022/07/10 08:46:52;;;;;;;6.40;2.00;;;;;27.30;97076.60;;;;110437;1253;41156;-67
2022/07/10 08:49:28;;;;;;;5.80;1.80;;;;;26.90;97081.40;;;;110323;1253;41430;-65
2022/07/10 08:52:11;;;;;;;4.20;1.70;;;;;26.80;97074.00;;;;110605;1253;41612;-66
2022/07/10 08:54:41;;;;;;;6.40;2.00;;;;;26.50;97081.60;;;;110566;1253;41193;-65
2022/07/10 08:57:10;;;;;;;5.00;2.00;;;;;26.60;97085.80;;;;110598;1253;41250;-65
2022/07/10 08:59:40;;;;;;;5.20;1.80;;;;;26.50;97088.40;;;;110472;1253;41159;-66
2022/07/10 09:02:09;;;;;;;5.80;1.90;;;;;26.40;97084.40;;;;110595;1253;42070;-66
2022/07/10 09:04:39;;;;;;;5.10;1.80;;;;;26.10;97091.20;;;;110459;1253;41970;-65
2022/07/10 09:07:09;;;;;;;3.50;1.50;;;;;25.80;97093.80;;;;110328;1254;41269;-66
2022/07/10 09:09:52;;;;;;;6.40;2.60;;;;;25.50;97099.80;;;;110560;1253;41138;-66
2022/07/10 09:12:22;;;;;;;6.60;2.60;;;;;24.92;97104.60;;;;110502;1253;41143;-66
2022/07/10 09:14:52;;;;;;;9.30;4.30;;;;;24.60;97111.80;;;;110301;1253;41608;-65
2022/07/10 09:17:21;;;;;;;6.80;2.30;;;;;24.40;97110.00;;;;110307;1254;42089;-67
2022/07/10 09:19:51;;;;;;;6.40;2.40;;;;;24.24;97112.80;;;;110570;1253;41160;-66
2022/07/10 09:22:22;;;;;;;4.50;2.20;;;;;24.04;97120.40;;;;110400;1253;41258;-66
2022/07/10 09:24:51;;;;;;;5.10;2.20;;;;;23.80;97118.00;;;;110602;1251;41130;-65
2022/07/10 09:27:21;;;;;;;6.80;2.10;;;;;23.60;97115.00;;;;110606;1253;41186;-65
2022/07/10 09:29:56;;;;;;;3.70;1.70;;;;;23.40;97109.20;;;;110550;1253;41133;-66
2022/07/10 09:32:26;;;;;;;7.70;3.00;;;;;23.10;97118.20;;;;110517;1253;41140;-66
2022/07/10 09:37:45;;;;;;;2.50;1.50;;;;;22.80;97130.60;;;;110527;1253;41181;-66
2022/07/10 09:40:15;;;;;;;4.70;1.90;;;;;22.78;97128.80;;;;110562;1253;41614;-66
2022/07/10 09:42:47;;;;;;;5.40;2.00;;;;;22.70;97129.60;;;;110564;1253;41161;-64
2022/07/10 09:45:17;;;;;;;6.80;2.10;;;;;22.60;97123.60;;;;110473;1253;42045;-66
2022/07/10 09:47:58;;;;;;;5.50;2.10;;;;;22.40;97121.00;;;;110497;1253;41159;-66
2022/07/10 09:50:33;;;;;;;5.50;2.20;;;;;22.40;97120.40;;;;110623;1253;41700;-65
2022/07/10 09:53:07;;;;;;;3.40;1.60;;;;;22.30;97125.40;;;;110506;1253;41513;-65
2022/07/10 09:55:37;;;;;;;4.80;1.90;;;;;22.20;97117.60;;;;110571;1253;41309;-65
2022/07/10 09:58:08;;;;;;;3.40;1.70;;;;;22.20;97119.80;;;;110460;1254;41264;-66
2022/07/10 10:00:40;;;;;;;3.90;1.80;;;;;22.10;97119.80;;;;110608;1252;41156;-65
2022/07/10 10:03:11;;;;;;;5.50;2.00;;;;;22.10;97116.60;;;;110382;1254;41161;-65
2022/07/10 10:05:55;;;;;;;2.30;1.60;;;;;22.10;97116.00;;;;110440;1253;41483;-67
2022/07/10 10:08:30;;;;;;;5.50;1.80;;;;;22.00;97111.00;;;;110565;1253;41267;-66
2022/07/10 10:11:01;;;;;;;2.70;1.50;;;;;22.00;97113.20;;;;110462;1253;41481;-66
2022/07/10 10:13:35;;;;;;;11.80;5.10;;;;;22.00;97118.40;;;;110612;1253;41162;-67
2022/07/10 10:16:08;;;;;;;25.40;11.20;;;;;22.10;97119.00;;;;110586;1254;41149;-68
2022/07/10 10:20:36;;;;;;;12.50;5.90;;;;;22.20;97116.00;;;;110645;1254;41149;-67
2022/07/10 10:21:29;;;;;;;7.00;2.30;;;;;22.44;97117.60;;;;110457;1255;41184;-68
2022/07/10 10:24:01;;;;;;;5.20;2.10;;;;;22.70;97112.60;;;;110455;1254;41130;-68
2022/07/10 10:26:30;;;;;;;4.90;1.90;;;;;22.90;97113.20;;;;110440;1253;41270;-65
2022/07/10 10:29:02;;;;;;;6.30;2.60;;;;;23.10;97108.00;;;;110366;1254;41165;-66
2022/07/10 10:31:32;;;;;;;7.00;2.60;;;;;23.30;97103.60;;;;110438;1256;41181;-67
2022/07/10 10:34:02;;;;;;;;;;;;;23.40;97103.40;;;;110488;1256;41154;-67
2022/07/10 10:36:41;;;;;;;;;;;;;23.50;97098.60;;;;110529;1254;41149;-67
2022/07/10 10:39:19;;;;;;;6.00;2.50;;;;;23.60;97096.80;;;;110613;1254;41929;-67
2022/07/10 10:41:53;;;;;;;9.30;4.10;;;;;23.70;97092.80;;;;110390;1253;41160;-66
2022/07/10 10:44:25;;;;;;;4.50;1.90;;;;;23.90;97101.40;;;;110518;1254;41134;-66
2022/07/10 10:47:00;;;;;;;18.70;7.20;;;;;23.88;97093.60;;;;110517;1256;41216;-67
2022/07/10 10:49:51;;;;;;;16.10;9.40;;;;;23.80;97092.80;;;;110556;1254;41814;-66
2022/07/10 10:52:24;;;;;;;12.10;7.10;;;;;23.90;97093.80;;;;110330;1256;41443;-66
2022/07/10 10:54:59;;;;;;;12.00;5.60;;;;;24.00;97085.60;;;;110485;1253;41175;-69
2022/07/10 10:57:36;;;;;;;5.20;2.20;;;;;24.00;97085.80;;;;110553;1255;41139;-67
2022/07/10 11:00:07;;;;;;;11.10;6.10;;;;;24.12;97079.40;;;;110576;1253;42300;-67
2022/07/10 11:02:47;;;;;;;10.10;4.10;;;;;24.30;97076.60;;;;110654;1253;41151;-66
2022/07/10 11:05:19;;;;;;;14.00;6.30;;;;;24.40;97072.00;;;;110549;1253;41162;-66
2022/07/10 11:07:53;;;;;;;11.40;5.30;;;;;24.52;97071.60;;;;110572;1253;41376;-66
2022/07/10 11:10:39;;;;;;;19.60;10.60;;;;;24.70;97063.00;;;;110610;1250;41145;-67
2022/07/10 11:13:17;;;;;;;6.60;2.60;;;;;24.70;97068.80;;;;110494;1253;41605;-67
2022/07/10 11:15:48;;;;;;;5.90;2.50;;;;;24.70;97061.40;;;;110468;1253;41163;-67
2022/07/10 11:18:21;;;;;;;2.60;1.40;;;;;24.70;97057.20;;;;110458;1253;41154;-65
2022/07/10 11:20:55;;;;;;;9.00;4.60;;;;;24.88;97054.00;;;;110316;1255;41139;-67
2022/07/10 11:23:44;;;;;;;7.80;2.90;;;;;24.84;97052.80;;;;110631;1253;41199;-66
2022/07/10 11:26:27;;;;;;;4.00;1.50;;;;;24.70;97060.40;;;;110431;1255;41588;-66
2022/07/10 11:29:03;;;;;;;3.00;1.50;;;;;24.60;97053.40;;;;110383;1253;41193;-66
2022/07/10 11:31:44;;;;;;;3.30;1.70;;;;;25.12;97048.40;;;;110524;1254;41148;-66
2022/07/10 11:34:14;;;;;;;2.70;1.50;;;;;25.68;97046.20;;;;110552;1253;43764;-70
2022/07/10 11:36:44;;;;;;;3.50;1.50;;;;;25.80;97046.60;;;;110647;1254;41253;-67
2022/07/10 11:39:14;;;;;;;2.40;1.30;;;;;25.72;97047.00;;;;110552;1256;41254;-66
2022/07/10 11:41:47;;;;;;;4.80;1.60;;;;;25.66;97044.80;;;;110641;1252;41143;-66
2022/07/10 11:44:18;;;;;;;2.70;1.40;;;;;25.70;97046.40;;;;110413;1255;41186;-65
2022/07/10 11:46:49;;;;;;;3.40;1.50;;;;;25.50;97041.20;;;;110585;1253;41470;-66
2022/07/10 11:49:19;;;;;;;3.20;1.40;;;;;25.30;97043.40;;;;110679;1253;41340;-67
2022/07/10 11:51:49;;;;;;;3.10;1.40;;;;;25.20;97047.60;;;;110295;1255;41860;-66
2022/07/10 11:54:19;;;;;;;3.20;1.60;;;;;25.20;97050.20;;;;110474;1253;41493;-66
2022/07/10 11:56:53;;;;;;;2.20;1.50;;;;;25.12;97054.40;;;;110494;1253;41606;-66
2022/07/10 11:59:27;;;;;;;2.30;1.40;;;;;25.02;97053.40;;;;110328;1253;41564;-66
2022/07/10 12:01:56;;;;;;;3.50;1.50;;;;;25.08;97052.40;;;;110486;1253;41944;-65
2022/07/10 12:04:32;;;;;;;2.10;1.40;;;;;25.60;97047.00;;;;110712;1253;41483;-67
2022/07/10 12:07:04;;;;;;;3.00;1.40;;;;;26.54;97041.40;;;;110507;1254;41613;-69
2022/07/10 12:09:40;;;;;;;4.40;1.30;;;;;27.52;97030.60;;;;110584;1253;40785;-66
2022/07/10 12:12:22;;;;;;;4.30;1.50;;;;;28.50;97027.40;;;;110423;1253;41938;-67
2022/07/10 12:14:53;;;;;;;2.80;1.50;;;;;28.94;97027.20;;;;110658;1253;41295;-68
2022/07/10 12:17:34;;;;;;;2.80;1.20;;;;;28.90;97027.80;;;;110458;1255;41245;-67
2022/07/10 12:20:48;;;;;;;4.20;1.40;;;;;28.54;97023.80;;;;110556;1253;42028;-67
2022/07/10 12:23:48;;;;;;;2.80;1.40;;;;;27.90;97028.80;;;;110471;1255;41514;-68
2022/07/10 12:26:37;;;;;;;1.60;1.30;;;;;27.50;97034.20;;;;110398;1256;41155;-68
2022/07/10 12:29:19;;;;;;;2.60;1.40;;;;;27.28;97026.40;;;;110683;1253;41155;-66
2022/07/10 12:31:54;;;;;;;2.60;1.30;;;;;27.00;97032.20;;;;110393;1254;41154;-70
2022/07/10 12:34:37;;;;;;;2.70;1.40;;;;;26.80;97027.80;;;;110671;1253;41149;-69
2022/07/10 12:37:14;;;;;;;5.30;1.70;;;;;26.60;97026.80;;;;110443;1253;41417;-69
2022/07/10 12:39:56;;;;;;;2.20;1.30;;;;;26.40;97025.80;;;;110689;1254;41640;-67